M I D A S
Marine Information and Data Acquisition System
Tripno 1617 of the Zeeleeuw from 2008-11-27 08:04:50 to 2008-11-27 16:01:30
Back to CruiseResearch ActivitiesStationsMapUnderway DataData graphs

EquipmentUnitsComments
TimeDGPSUTC
LatitudeDGPSDM.mWGS84
LongitudeDGPSDM.mWGS84
SpeedMeteo Stationm/sRelative wind speed
DirectionMeteo StationdegRelative wind direction
TemperatureMeteo Stationdeg CelciusAir temperature
PressureMeteo StationPaAtmospheric pressure
HumidityMeteo Station%Relative humidity
Missing or incorrect values are displayed as -999
Metereological data collected by the RV Zeeleeuw from 2008-11-27 08:00:37 to 2008-11-27 16:17:23
Time Latitude Longitude Speed Direction Temperature Pressure Humidity
2008-11-27 08:01 51°13.624 2°56.049 -999 -999 -999 -999 -999
2008-11-27 08:02 51°13.624 2°56.049 -999 -999 -999 -999 -999
2008-11-27 08:03 51°13.625 2°56.042 -999 -999 -999 -999 -999
2008-11-27 08:04 51°13.648 2°55.963 4.5 33 7.1 101830 90
2008-11-27 08:05 51°13.684 2°55.857 2.5 34 7.1 101820 92
2008-11-27 08:06 51°13.71 2°55.778 6.2 29 7.2 101820 94
2008-11-27 08:07 51°13.715 2°55.729 4.1 30 7.2 101820 95
2008-11-27 08:08 51°13.713 2°55.706 3.4 34 7.2 101820 95
2008-11-27 08:09 51°13.752 2°55.694 2.5 31 7.2 101820 96
2008-11-27 08:10 51°13.876 2°55.605 0.5 346 7.2 101820 96
2008-11-27 08:11 51°14.003 2°55.508 2.3 34 7.2 101810 97
2008-11-27 08:12 51°14.113 2°55.416 2 31 7.2 101810 96
2008-11-27 08:13 51°14.213 2°55.316 4.2 320 7.3 101810 97
2008-11-27 08:14 51°14.325 2°55.133 5.3 31 7.3 101810 98
2008-11-27 08:15 51°14.451 2°54.925 8 255 7.3 101800 98
2008-11-27 08:16 51°14.605 2°54.742 7.9 250 7.3 101800 99
2008-11-27 08:17 51°14.767 2°54.535 7.9 251 7.3 101790 99
2008-11-27 08:18 51°14.922 2°54.325 8.8 252 7.3 101790 98
2008-11-27 08:19 51°15.07 2°54.117 7.5 251 7.3 101790 99
2008-11-27 08:20 51°15.223 2°53.909 7.5 250 7.3 101780 99
2008-11-27 08:21 51°15.381 2°53.703 9.7 256 7.3 101790 99
2008-11-27 08:22 51°15.537 2°53.507 8.5 258 7.3 101780 99
2008-11-27 08:23 51°15.703 2°53.33 9.1 257 7.3 101790 99
2008-11-27 08:24 51°15.873 2°53.16 8.4 261 7.3 101780 99
2008-11-27 08:25 51°16.044 2°52.991 9 255 7.3 101790 100
2008-11-27 08:26 51°16.216 2°52.824 9.4 258 7.3 101780 100
2008-11-27 08:27 51°16.384 2°52.654 7 257 7.4 101780 100
2008-11-27 08:28 51°16.551 2°52.485 9.2 260 7.4 101780 100
2008-11-27 08:29 51°16.714 2°52.317 5.4 260 7.4 101770 100
2008-11-27 08:30 51°16.872 2°52.145 7.2 257 7.4 101760 99
2008-11-27 08:31 51°17.032 2°51.972 9.7 259 7.4 101770 100
2008-11-27 08:32 51°17.193 2°51.798 7.7 260 7.4 101770 100
2008-11-27 08:33 51°17.352 2°51.62 7.4 263 7.4 101760 100
2008-11-27 08:34 51°17.511 2°51.451 6.2 261 7.4 101770 100
2008-11-27 08:35 51°17.672 2°51.275 8.9 259 7.4 101750 100
2008-11-27 08:36 51°17.831 2°51.095 8.5 260 7.4 101750 100
2008-11-27 08:37 51°17.999 2°50.931 8 262 7.5 101740 100
2008-11-27 08:38 51°18.168 2°50.765 6.2 262 7.5 101730 100
2008-11-27 08:39 51°18.339 2°50.606 5.7 265 7.5 101730 100
2008-11-27 08:40 51°18.507 2°50.444 5.9 260 7.5 101720 100
2008-11-27 08:41 51°18.674 2°50.283 5.8 263 7.5 101730 100
2008-11-27 08:42 51°18.848 2°50.139 7.8 32 7.5 101730 100
2008-11-27 08:43 51°19.025 2°50.007 6.1 267 7.5 101730 100
2008-11-27 08:44 51°19.204 2°49.874 5.1 267 7.5 101720 100
2008-11-27 08:45 51°19.383 2°49.738 7.6 267 7.5 101730 100
2008-11-27 08:46 51°19.561 2°49.593 6.6 269 7.5 101710 100
2008-11-27 08:47 51°19.741 2°49.451 4.3 263 7.5 101710 100
2008-11-27 08:48 51°19.922 2°49.309 5.2 261 7.5 101720 100
2008-11-27 08:49 51°20.101 2°49.165 4.5 264 7.5 101710 100
2008-11-27 08:50 51°20.279 2°49.022 5.7 253 7.5 101720 100
2008-11-27 08:51 51°20.457 2°48.879 6.5 253 7.5 101720 100
2008-11-27 08:52 51°20.633 2°48.733 7.9 257 7.6 101740 100
2008-11-27 08:53 51°20.809 2°48.587 7.7 253 7.6 101740 100
2008-11-27 08:54 51°20.985 2°48.445 6.8 251 7.6 101730 100
2008-11-27 08:55 51°21.162 2°48.301 5.9 245 7.6 101730 100
2008-11-27 08:56 51°21.341 2°48.163 6.7 248 7.6 101750 100
2008-11-27 08:57 51°21.521 2°48.026 8.9 253 7.7 101750 100
2008-11-27 08:58 51°21.701 2°47.886 7.7 252 7.7 101730 100
2008-11-27 08:59 51°21.881 2°47.748 10.2 255 7.7 101730 100
2008-11-27 09:00 51°22.061 2°47.612 7.6 254 7.7 101740 100
2008-11-27 09:01 51°22.239 2°47.472 8.8 255 7.7 101720 100
2008-11-27 09:02 51°22.416 2°47.33 8.2 260 7.7 101730 100
2008-11-27 09:03 51°22.59 2°47.19 7.9 257 7.7 101720 100
2008-11-27 09:04 51°22.767 2°47.051 7.3 255 7.7 101730 100
2008-11-27 09:05 51°22.944 2°46.914 10 258 7.8 101700 100
2008-11-27 09:06 51°23.122 2°46.778 8.4 256 7.8 101720 100
2008-11-27 09:07 51°23.3 2°46.639 6.2 251 7.8 101720 100
2008-11-27 09:08 51°23.478 2°46.5 9 259 7.8 101710 100
2008-11-27 09:09 51°23.656 2°46.36 8.3 255 7.8 101700 100
2008-11-27 09:10 51°23.835 2°46.222 9 257 7.8 101720 100
2008-11-27 09:11 51°24.014 2°46.082 8.5 261 7.8 101710 100
2008-11-27 09:12 51°24.195 2°45.962 5.2 263 7.9 101700 100
2008-11-27 09:13 51°24.379 2°45.85 7.3 258 7.9 101700 100
2008-11-27 09:14 51°24.564 2°45.737 4.9 262 7.9 101700 100
2008-11-27 09:15 51°24.747 2°45.628 7.5 260 7.9 101700 100
2008-11-27 09:16 51°24.932 2°45.514 7.5 258 7.9 101700 100
2008-11-27 09:17 51°25.111 2°45.383 7.9 256 7.9 101690 100
2008-11-27 09:18 51°25.286 2°45.241 8.8 259 7.9 101690 100
2008-11-27 09:19 51°25.462 2°45.097 7.8 257 8 101680 100
2008-11-27 09:20 51°25.635 2°44.946 8.8 258 8 101700 100
2008-11-27 09:21 51°25.809 2°44.798 6.2 259 8 101680 100
2008-11-27 09:22 51°25.984 2°44.655 6.9 252 8 101680 100
2008-11-27 09:23 51°26.162 2°44.518 6.8 258 8.1 101670 100
2008-11-27 09:24 51°26.34 2°44.384 8.5 257 8.1 101680 100
2008-11-27 09:25 51°26.522 2°44.252 8.1 255 8.1 101690 100
2008-11-27 09:26 51°26.703 2°44.12 9.1 259 8.1 101680 100
2008-11-27 09:27 51°26.885 2°43.984 7.1 257 8.1 101670 100
2008-11-27 09:28 51°27.068 2°43.851 9.6 257 8.2 101670 100
2008-11-27 09:29 51°27.252 2°43.719 10.7 259 8.2 101670 100
2008-11-27 09:30 51°27.437 2°43.588 8.8 256 8.2 101670 100
2008-11-27 09:31 51°27.616 2°43.461 7.2 254 8.3 101660 100
2008-11-27 09:32 51°27.801 2°43.327 6.5 262 8.2 101660 100
2008-11-27 09:33 51°27.985 2°43.199 7 258 8.3 101650 100
2008-11-27 09:34 51°28.168 2°43.071 8.4 253 8.3 101660 100
2008-11-27 09:35 51°28.347 2°42.947 6.9 262 8.4 101650 100
2008-11-27 09:36 51°28.527 2°42.822 8 251 8.4 101660 100
2008-11-27 09:37 51°28.71 2°42.69 8.8 257 8.5 101660 100
2008-11-27 09:38 51°28.889 2°42.556 7.4 260 8.5 101660 100
2008-11-27 09:39 51°29.068 2°42.433 9.1 256 8.5 101630 100
2008-11-27 09:40 51°29.252 2°42.304 8.3 256 8.5 101650 100
2008-11-27 09:41 51°29.432 2°42.175 8.3 260 8.6 101640 100
2008-11-27 09:42 51°29.613 2°42.046 8.2 258 8.6 101640 100
2008-11-27 09:43 51°29.794 2°41.923 8.6 260 8.7 101650 100
2008-11-27 09:44 51°29.974 2°41.797 9.2 259 8.7 101630 100
2008-11-27 09:45 51°30.156 2°41.678 7.8 257 8.7 101630 100
2008-11-27 09:46 51°30.35 2°41.652 3.9 38 8.7 101630 100
2008-11-27 09:47 51°30.544 2°41.68 4.7 36 8.7 101630 100
2008-11-27 09:48 51°30.735 2°41.728 3.7 27 8.7 101630 100
2008-11-27 09:49 51°30.926 2°41.795 4.9 36 8.8 101630 100
2008-11-27 09:50 51°31.116 2°41.88 4.1 37 8.7 101620 100
2008-11-27 09:51 51°31.306 2°41.967 4.4 37 8.8 101620 100
2008-11-27 09:52 51°31.498 2°42.054 5.9 32 8.8 101620 100
2008-11-27 09:53 51°31.685 2°42.142 5.6 35 8.8 101620 100
2008-11-27 09:54 51°31.875 2°42.247 4 38 8.8 101610 100
2008-11-27 09:55 51°32.063 2°42.347 1.7 265 8.8 101620 100
2008-11-27 09:56 51°32.251 2°42.453 4 31 8.9 101610 100
2008-11-27 09:57 51°32.436 2°42.558 4.1 36 8.9 101620 100
2008-11-27 09:58 51°32.622 2°42.671 3.3 38 9 101610 100
2008-11-27 09:59 51°32.805 2°42.787 2.1 39 8.9 101610 100
2008-11-27 10:00 51°32.987 2°42.895 2.5 39 9 101610 100
2008-11-27 10:01 51°33.175 2°43.011 1.8 37 9.2 101610 100
2008-11-27 10:02 51°33.36 2°43.123 3.1 44 9.1 101610 100
2008-11-27 10:03 51°33.545 2°43.243 3.3 37 9.1 101610 100
2008-11-27 10:04 51°33.731 2°43.35 2.8 37 9.1 101610 100
2008-11-27 10:05 51°33.914 2°43.47 3.5 37 9.1 101610 100
2008-11-27 10:06 51°34.1 2°43.587 2.7 32 9 101610 100
2008-11-27 10:07 51°34.287 2°43.701 2.8 35 9.1 101610 100
2008-11-27 10:08 51°34.47 2°43.815 2.7 45 9.2 101590 100
2008-11-27 10:09 51°34.653 2°43.935 3.5 36 9.2 101600 100
2008-11-27 10:10 51°34.839 2°44.055 2.3 37 9.3 101610 100
2008-11-27 10:11 51°35.025 2°44.173 2.8 36 9.3 101590 100
2008-11-27 10:12 51°35.213 2°44.287 3 35 9.3 101590 100
2008-11-27 10:13 51°35.4 2°44.404 2.4 30 9.3 101600 100
2008-11-27 10:14 51°35.585 2°44.521 3.7 39 9.4 101590 100
2008-11-27 10:15 51°35.771 2°44.645 3.9 39 9.4 101590 100
2008-11-27 10:16 51°35.957 2°44.761 2.7 31 9.3 101590 100
2008-11-27 10:17 51°36.144 2°44.877 2.2 35 9.4 101580 100
2008-11-27 10:18 51°36.325 2°44.999 3.1 38 9.5 101590 100
2008-11-27 10:19 51°36.51 2°45.113 1.8 34 9.6 101590 100
2008-11-27 10:20 51°36.698 2°45.236 2.7 31 9.6 101580 100
2008-11-27 10:21 51°36.886 2°45.365 3.1 32 9.5 101580 99
2008-11-27 10:22 51°37.068 2°45.488 3.2 31 9.4 101580 99
2008-11-27 10:23 51°37.262 2°45.598 3 36 9.4 101580 99
2008-11-27 10:24 51°37.448 2°45.71 3.2 33 9.3 101560 99
2008-11-27 10:25 51°37.639 2°45.823 5 37 9.5 101580 99
2008-11-27 10:26 51°37.831 2°45.926 4.3 35 9.6 101580 99
2008-11-27 10:27 51°38.02 2°46.035 4.3 33 9.5 101590 98
2008-11-27 10:28 51°38.212 2°46.153 3.5 36 9.4 101570 99
2008-11-27 10:29 51°38.398 2°46.272 3 36 9.5 101570 99
2008-11-27 10:30 51°38.59 2°46.39 2.3 36 9.4 101570 99
2008-11-27 10:31 51°38.779 2°46.512 2.6 33 9.4 101560 99
2008-11-27 10:32 51°38.966 2°46.62 3.5 37 9.5 101560 99
2008-11-27 10:33 51°39.159 2°46.731 4.8 39 9.5 101550 100
2008-11-27 10:34 51°39.35 2°46.845 3.6 39 9.5 101550 99
2008-11-27 10:35 51°39.536 2°46.962 2.3 36 9.6 101550 99
2008-11-27 10:36 51°39.728 2°47.081 3.6 34 9.5 101540 100
2008-11-27 10:37 51°39.918 2°47.194 4.9 36 9.4 101540 99
2008-11-27 10:38 51°40.106 2°47.316 2.4 37 9.4 101530 99
2008-11-27 10:39 51°40.298 2°47.438 3.8 39 9.6 101540 100
2008-11-27 10:40 51°40.489 2°47.555 4.9 36 9.5 101530 100
2008-11-27 10:41 51°40.677 2°47.674 2.3 33 9.5 101530 99
2008-11-27 10:42 51°40.873 2°47.789 2.7 34 9.5 101520 99
2008-11-27 10:43 51°41.066 2°47.909 4.1 36 9.5 101530 100
2008-11-27 10:44 51°41.256 2°48.045 4 36 9.4 101530 99
2008-11-27 10:45 51°41.397 2°48.289 7.6 26 9.4 101520 100
2008-11-27 10:46 51°41.441 2°48.612 9 6 9.3 101500 99
2008-11-27 10:47 51°41.383 2°48.935 11.9 4 9.3 101480 99
2008-11-27 10:48 51°41.294 2°49.24 15.5 354 9.2 101470 100
2008-11-27 10:49 51°41.136 2°49.433 14.8 343 9.1 101470 100
2008-11-27 10:50 51°40.956 2°49.426 14.7 332 9 101480 100
2008-11-27 10:51 51°40.777 2°49.334 18.9 331 8.9 101470 100
2008-11-27 10:52 51°40.596 2°49.269 18.1 332 8.9 101460 100
2008-11-27 10:53 51°40.409 2°49.219 16.6 337 8.9 101450 100
2008-11-27 10:54 51°40.223 2°49.166 17.3 334 8.9 101460 100
2008-11-27 10:55 51°40.037 2°49.116 17.6 333 8.8 101470 100
2008-11-27 10:56 51°39.855 2°49.041 19 331 8.8 101470 100
2008-11-27 10:57 51°39.674 2°48.966 18 335 8.7 101430 100
2008-11-27 10:58 51°39.491 2°48.891 18.8 334 8.8 101460 100
2008-11-27 10:59 51°39.312 2°48.821 15.2 331 8.8 101430 100
2008-11-27 11:00 51°39.126 2°48.748 17.7 332 8.8 101440 100
2008-11-27 11:01 51°38.946 2°48.679 15.6 332 8.8 101450 100
2008-11-27 11:02 51°38.76 2°48.613 18.6 332 8.8 101440 100
2008-11-27 11:03 51°38.581 2°48.535 17.3 333 8.8 101450 100
2008-11-27 11:04 51°38.405 2°48.452 16.6 335 8.8 101430 100
2008-11-27 11:05 51°38.226 2°48.37 17 333 8.9 101440 100
2008-11-27 11:06 51°38.049 2°48.291 16 331 8.9 101440 100
2008-11-27 11:07 51°37.873 2°48.213 15.7 334 8.8 101450 100
2008-11-27 11:08 51°37.702 2°48.142 16.4 330 8.8 101420 100
2008-11-27 11:09 51°37.529 2°48.066 16.7 331 8.8 101420 100
2008-11-27 11:10 51°37.353 2°47.983 17.9 333 8.8 101420 100
2008-11-27 11:11 51°37.176 2°47.909 17.6 334 8.8 101430 100
2008-11-27 11:12 51°37.003 2°47.835 15.8 336 8.8 101450 100
2008-11-27 11:13 51°36.828 2°47.755 16.8 332 8.8 101430 100
2008-11-27 11:14 51°36.654 2°47.677 17.1 330 8.8 101420 100
2008-11-27 11:15 51°36.477 2°47.6 16.5 333 8.8 101400 100
2008-11-27 11:16 51°36.306 2°47.525 16.9 333 8.9 101400 100
2008-11-27 11:17 51°36.134 2°47.449 17.3 332 8.9 101410 100
2008-11-27 11:18 51°35.963 2°47.373 16 335 8.9 101410 100
2008-11-27 11:19 51°35.792 2°47.293 16.1 334 8.9 101430 100
2008-11-27 11:20 51°35.619 2°47.21 15.9 336 8.9 101400 100
2008-11-27 11:21 51°35.448 2°47.132 15.3 333 8.9 101410 100
2008-11-27 11:22 51°35.276 2°47.054 17.2 334 8.9 101410 100
2008-11-27 11:23 51°35.109 2°46.976 20.1 333 9 101420 100
2008-11-27 11:24 51°34.942 2°46.896 13.6 333 8.9 101400 100
2008-11-27 11:25 51°34.772 2°46.816 16.8 333 8.9 101390 100
2008-11-27 11:26 51°34.605 2°46.735 15 333 8.9 101390 100
2008-11-27 11:27 51°34.435 2°46.656 16.4 335 8.9 101420 100
2008-11-27 11:28 51°34.269 2°46.582 17.3 333 8.9 101390 100
2008-11-27 11:29 51°34.104 2°46.504 17.2 336 8.9 101390 100
2008-11-27 11:30 51°33.937 2°46.427 19 333 9 101410 100
2008-11-27 11:31 51°33.767 2°46.345 17 332 9 101420 100
2008-11-27 11:32 51°33.605 2°46.264 16.5 332 8.9 101400 100
2008-11-27 11:33 51°33.44 2°46.185 15 331 8.9 101400 100
2008-11-27 11:34 51°33.273 2°46.106 15.2 331 8.8 101380 100
2008-11-27 11:35 51°33.108 2°46.031 15.8 330 8.9 101380 100
2008-11-27 11:36 51°32.943 2°45.95 16.3 330 8.8 101400 100
2008-11-27 11:37 51°32.779 2°45.869 17.1 330 8.8 101380 100
2008-11-27 11:38 51°32.616 2°45.795 17.4 331 8.8 101400 100
2008-11-27 11:39 51°32.448 2°45.714 18.2 329 8.8 101380 100
2008-11-27 11:40 51°32.285 2°45.636 16.5 332 8.8 101370 100
2008-11-27 11:41 51°32.119 2°45.561 16.9 330 8.8 101360 100
2008-11-27 11:42 51°31.957 2°45.485 15.4 329 8.8 101380 100
2008-11-27 11:43 51°31.795 2°45.407 17.1 330 8.8 101370 100
2008-11-27 11:44 51°31.63 2°45.331 16.1 331 8.8 101370 100
2008-11-27 11:45 51°31.464 2°45.25 16.4 330 8.8 101370 100
2008-11-27 11:46 51°31.304 2°45.171 16.5 330 8.8 101380 100
2008-11-27 11:47 51°31.145 2°45.094 16.7 330 8.7 101370 100
2008-11-27 11:48 51°30.982 2°45.02 18.1 329 8.7 101370 100
2008-11-27 11:49 51°30.821 2°44.944 16.4 329 8.7 101350 100
2008-11-27 11:50 51°30.657 2°44.869 17.5 329 8.7 101360 99
2008-11-27 11:51 51°30.495 2°44.789 15.1 331 8.7 101350 99
2008-11-27 11:52 51°30.331 2°44.709 16 331 8.7 101350 100
2008-11-27 11:53 51°30.168 2°44.635 16.9 330 8.7 101330 100
2008-11-27 11:54 51°29.999 2°44.559 17.7 331 8.7 101340 100
2008-11-27 11:55 51°29.841 2°44.488 18.1 330 8.7 101360 99
2008-11-27 11:56 51°29.676 2°44.41 17.3 329 8.7 101330 100
2008-11-27 11:57 51°29.517 2°44.329 17.2 332 8.7 101350 100
2008-11-27 11:58 51°29.346 2°44.289 19.8 335 8.7 101340 99
2008-11-27 11:59 51°29.173 2°44.328 16.1 345 8.7 101330 100
2008-11-27 12:00 51°29.033 2°44.533 15.1 355 8.7 101330 100
2008-11-27 12:01 51°28.922 2°44.809 14.6 357 8.7 101310 100
2008-11-27 12:02 51°28.817 2°45.1 15.6 354 8.7 101320 99
2008-11-27 12:03 51°28.714 2°45.387 16.1 352 8.6 101330 99
2008-11-27 12:04 51°28.614 2°45.667 14.6 355 8.6 101320 100
2008-11-27 12:05 51°28.509 2°45.963 16.1 357 8.6 101310 100
2008-11-27 12:06 51°28.404 2°46.26 15.2 354 8.5 101310 100
2008-11-27 12:07 51°28.3 2°46.56 13.7 356 8.5 101300 100
2008-11-27 12:08 51°28.196 2°46.854 14.8 355 8.5 101310 100
2008-11-27 12:09 51°28.092 2°47.149 14.7 350 8.4 101310 100
2008-11-27 12:10 51°27.989 2°47.454 16.4 356 8.4 101310 99
2008-11-27 12:11 51°27.892 2°47.737 16.2 354 8.4 101310 100
2008-11-27 12:12 51°27.787 2°48.041 16.2 354 8.3 101310 100
2008-11-27 12:13 51°27.69 2°48.325 15.6 355 8.3 101310 100
2008-11-27 12:14 51°27.588 2°48.617 16.9 356 8.3 101310 100
2008-11-27 12:15 51°27.485 2°48.909 16.2 356 8.3 101300 100
2008-11-27 12:16 51°27.38 2°49.207 14.5 353 8.2 101290 100
2008-11-27 12:17 51°27.277 2°49.504 14.1 352 8.2 101310 100
2008-11-27 12:18 51°27.175 2°49.801 16.2 355 8.2 101300 100
2008-11-27 12:19 51°27.072 2°50.1 14.9 354 8.2 101300 100
2008-11-27 12:20 51°26.97 2°50.386 15.7 356 8.2 101290 100
2008-11-27 12:21 51°26.863 2°50.683 14.2 357 8.2 101310 100
2008-11-27 12:22 51°26.76 2°50.973 15.8 354 8.2 101300 100
2008-11-27 12:23 51°26.651 2°51.267 15.7 354 8.2 101300 100
2008-11-27 12:24 51°26.545 2°51.562 16.5 356 8.2 101300 100
2008-11-27 12:25 51°26.44 2°51.857 15.2 354 8.1 101300 100
2008-11-27 12:26 51°26.337 2°52.154 16.1 355 8.1 101300 100
2008-11-27 12:27 51°26.232 2°52.451 16.4 354 8.1 101290 100
2008-11-27 12:28 51°26.127 2°52.743 14.1 352 8.1 101290 100
2008-11-27 12:29 51°26.023 2°53.038 16.1 356 8.1 101300 100
2008-11-27 12:30 51°25.917 2°53.336 14.4 355 8 101290 100
2008-11-27 12:31 51°25.815 2°53.624 15 355 8 101300 100
2008-11-27 12:32 51°25.711 2°53.916 13.8 350 8 101300 100
2008-11-27 12:33 51°25.61 2°54.206 13.2 351 8 101300 100
2008-11-27 12:34 51°25.505 2°54.495 18.2 353 8 101290 100
2008-11-27 12:35 51°25.403 2°54.784 14.9 353 8 101290 100
2008-11-27 12:36 51°25.296 2°55.071 16.8 354 8 101300 100
2008-11-27 12:37 51°25.189 2°55.365 16.6 355 7.9 101300 100
2008-11-27 12:38 51°25.092 2°55.648 16.1 352 7.9 101300 100
2008-11-27 12:39 51°24.988 2°55.957 17.4 355 7.9 101310 100
2008-11-27 12:40 51°24.891 2°56.244 15.5 358 7.9 101300 100
2008-11-27 12:41 51°24.789 2°56.54 15.5 358 7.9 101300 100
2008-11-27 12:42 51°24.688 2°56.841 16.5 353 7.9 101290 99
2008-11-27 12:43 51°24.587 2°57.124 16.1 356 7.9 101300 100
2008-11-27 12:44 51°24.483 2°57.409 15.9 355 7.8 101280 100
2008-11-27 12:45 51°24.407 2°57.714 10.3 5 7.8 101280 100
2008-11-27 12:46 51°24.404 2°58.066 10.3 4 7.8 101320 100
2008-11-27 12:47 51°24.361 2°58.4 15.8 360 7.8 101310 100
2008-11-27 12:48 51°24.275 2°58.708 15.3 355 7.7 101290 100
2008-11-27 12:49 51°24.168 2°58.976 16.9 352 7.7 101280 100
2008-11-27 12:50 51°24.053 2°59.245 17.6 353 7.7 101280 100
2008-11-27 12:51 51°23.938 2°59.522 14.9 351 7.7 101300 100
2008-11-27 12:52 51°23.828 2°59.793 14.2 350 7.7 101290 100
2008-11-27 12:53 51°23.717 3°0.074 14.4 349 7.6 101290 100
2008-11-27 12:54 51°23.607 3°0.359 15.4 350 7.6 101280 100
2008-11-27 12:55 51°23.493 3°0.638 16 350 7.5 101280 99
2008-11-27 12:56 51°23.38 3°0.918 17.8 355 7.5 101280 100
2008-11-27 12:57 51°23.268 3°1.199 16.5 352 7.4 101270 100
2008-11-27 12:58 51°23.153 3°1.48 17.2 354 7.4 101290 100
2008-11-27 12:59 51°23.043 3°1.754 14.8 356 7.4 101290 100
2008-11-27 13:00 51°22.929 3°2.03 15.4 353 7.4 101290 100
2008-11-27 13:01 51°22.818 3°2.305 15.9 358 7.4 101280 100
2008-11-27 13:02 51°22.731 3°2.607 14.9 356 7.4 101290 100
2008-11-27 13:03 51°22.593 3°2.823 16.2 346 7.4 101290 100
2008-11-27 13:04 51°22.433 3°3 16.6 343 7.4 101290 100
2008-11-27 13:05 51°22.272 3°3.178 15.6 344 7.4 101280 100
2008-11-27 13:06 51°22.105 3°3.353 17.5 345 7.4 101290 100
2008-11-27 13:07 51°21.945 3°3.53 18.8 345 7.4 101290 100
2008-11-27 13:08 51°21.779 3°3.713 17.7 344 7.4 101290 99
2008-11-27 13:09 51°21.619 3°3.89 16 341 7.3 101290 99
2008-11-27 13:10 51°21.454 3°4.063 17.7 344 7.3 101290 100
2008-11-27 13:11 51°21.29 3°4.235 16.4 343 7.4 101280 99
2008-11-27 13:12 51°21.177 3°4.451 14.3 355 7.3 101260 99
2008-11-27 13:13 51°21.115 3°4.697 12.7 1 7.4 101280 100
2008-11-27 13:14 51°21.077 3°4.961 10.1 7 7.4 101290 99
2008-11-27 13:15 51°21.093 3°5.24 11.3 11 7.4 101300 99
2008-11-27 13:16 51°21.114 3°5.501 8.6 10 7.4 101310 99
2008-11-27 13:17 51°21.136 3°5.777 10.9 7 7.3 101310 100
2008-11-27 13:18 51°21.157 3°6.042 12.1 15 7.3 101290 99
2008-11-27 13:19 51°21.179 3°6.3 11.6 8 7.3 101290 100
2008-11-27 13:20 51°21.195 3°6.528 12.5 11 7.3 101300 99
2008-11-27 13:21 51°21.216 3°6.772 11 15 7.2 101300 99
2008-11-27 13:22 51°21.232 3°7.003 11.1 9 7.3 101300 99
2008-11-27 13:23 51°21.252 3°7.243 10.3 15 7.2 101300 100
2008-11-27 13:24 51°21.273 3°7.467 10.8 14 7.2 101300 98
2008-11-27 13:25 51°21.303 3°7.706 10.8 17 7.2 101300 99
2008-11-27 13:26 51°21.33 3°7.931 11.3 13 7.2 101300 100
2008-11-27 13:27 51°21.362 3°8.171 10.8 17 7.2 101300 99
2008-11-27 13:28 51°21.392 3°8.395 9.6 13 7.2 101290 100
2008-11-27 13:29 51°21.422 3°8.627 10.2 10 7.2 101290 99
2008-11-27 13:30 51°21.455 3°8.861 10.6 17 7.2 101290 99
2008-11-27 13:31 51°21.489 3°9.092 10.9 13 7.2 101290 99
2008-11-27 13:32 51°21.523 3°9.322 10.8 17 7.2 101280 99
2008-11-27 13:33 51°21.579 3°9.542 7.2 40 7.2 101300 100
2008-11-27 13:34 51°21.727 3°9.611 8.2 40 7.3 101320 99
2008-11-27 13:35 51°21.819 3°9.452 15.7 239 7.3 101300 100
2008-11-27 13:36 51°21.762 3°9.225 12.8 35 7.3 101230 100
2008-11-27 13:37 51°21.696 3°9.016 15.6 33 7.3 101240 98
2008-11-27 13:38 51°21.637 3°8.825 14 316 7.3 101250 99
2008-11-27 13:39 51°21.577 3°8.633 14.2 315 7.3 101250 98
2008-11-27 13:40 51°21.517 3°8.444 16.1 316 7.3 101250 98
2008-11-27 13:41 51°21.459 3°8.258 15.1 33 7.3 101240 99
2008-11-27 13:42 51°21.409 3°8.094 14.7 35 7.3 101240 100
2008-11-27 13:43 51°21.354 3°7.918 14.2 315 7.3 101250 99
2008-11-27 13:44 51°21.304 3°7.751 16.2 35 7.3 101240 99
2008-11-27 13:45 51°21.257 3°7.578 15 34 7.3 101240 98
2008-11-27 13:46 51°21.218 3°7.432 13.8 34 7.3 101250 100
2008-11-27 13:47 51°21.181 3°7.286 15.5 32 7.3 101250 99
2008-11-27 13:48 51°21.147 3°7.131 14.7 37 7.3 101250 100
2008-11-27 13:49 51°21.114 3°6.978 13.2 35 7.3 101240 99
2008-11-27 13:50 51°21.088 3°6.843 12.1 33 7.3 101250 99
2008-11-27 13:51 51°21.065 3°6.717 10.7 33 7.3 101250 98
2008-11-27 13:52 51°21.04 3°6.59 13.8 33 7.3 101250 99
2008-11-27 13:53 51°21.016 3°6.463 13.1 34 7.3 101250 100
2008-11-27 13:54 51°20.992 3°6.34 14 34 7.3 101250 98
2008-11-27 13:55 51°20.97 3°6.213 12.7 37 7.4 101240 98
2008-11-27 13:56 51°20.948 3°6.091 13.6 35 7.4 101240 100
2008-11-27 13:57 51°20.93 3°5.962 11.9 36 7.4 101240 99
2008-11-27 13:58 51°20.911 3°5.839 14.2 34 7.4 101230 100
2008-11-27 13:59 51°20.89 3°5.712 13.2 33 7.4 101240 98
2008-11-27 14:00 51°20.87 3°5.581 12.3 235 7.4 101240 98
2008-11-27 14:01 51°20.851 3°5.454 12.3 236 7.4 101230 99
2008-11-27 14:02 51°20.845 3°5.38 11.8 239 7.4 101250 100
2008-11-27 14:03 51°20.863 3°5.331 11.4 258 7.4 101240 98
2008-11-27 14:04 51°20.931 3°5.32 9.6 37 7.4 101270 100
2008-11-27 14:05 51°20.981 3°5.41 11.7 32 7.4 101280 100
2008-11-27 14:06 51°21.008 3°5.495 10 22 7.4 101280 100
2008-11-27 14:07 51°21.015 3°5.585 12.4 8 7.4 101280 100
2008-11-27 14:08 51°21.009 3°5.667 13.1 359 7.4 101250 99
2008-11-27 14:09 51°20.986 3°5.726 12.7 340 7.3 101240 100
2008-11-27 14:10 51°20.944 3°5.745 12.3 336 7.3 101240 99
2008-11-27 14:11 51°20.9 3°5.763 11.4 339 7.3 101240 98
2008-11-27 14:12 51°20.858 3°5.779 12.4 338 7.4 101250 99
2008-11-27 14:13 51°20.82 3°5.823 12.4 351 7.4 101240 99
2008-11-27 14:14 51°20.799 3°5.891 11.5 358 7.3 101260 100
2008-11-27 14:15 51°20.796 3°5.957 11.4 12 7.3 101270 99
2008-11-27 14:16 51°20.805 3°6.037 9.5 24 7.3 101280 100
2008-11-27 14:17 51°20.819 3°6.118 9.5 22 7.3 101280 100
2008-11-27 14:18 51°20.832 3°6.191 10.2 18 7.3 101270 100
2008-11-27 14:19 51°20.848 3°6.261 10.1 25 7.3 101280 99
2008-11-27 14:20 51°20.866 3°6.329 9.1 27 7.3 101280 100
2008-11-27 14:21 51°20.886 3°6.396 9.4 30 7.3 101280 99
2008-11-27 14:22 51°20.908 3°6.463 10.9 29 7.3 101280 100
2008-11-27 14:23 51°20.934 3°6.53 9.8 27 7.3 101290 100
2008-11-27 14:24 51°20.962 3°6.596 4.4 35 7.3 101280 99
2008-11-27 14:25 51°20.991 3°6.664 10 32 7.3 101280 99
2008-11-27 14:26 51°21.019 3°6.734 9.6 27 7.3 101270 100
2008-11-27 14:27 51°21.045 3°6.805 10.1 27 7.3 101260 99
2008-11-27 14:28 51°21.073 3°6.876 10.9 26 7.3 101250 99
2008-11-27 14:29 51°21.099 3°6.948 11.1 25 7.3 101250 99
2008-11-27 14:30 51°21.123 3°7.02 9.9 24 7.3 101260 100
2008-11-27 14:31 51°21.146 3°7.096 10.8 27 7.4 101260 99
2008-11-27 14:32 51°21.168 3°7.171 10.3 27 7.3 101260 100
2008-11-27 14:33 51°21.189 3°7.245 8.7 24 7.3 101260 100
2008-11-27 14:34 51°21.209 3°7.317 10.1 25 7.3 101260 99
2008-11-27 14:35 51°21.23 3°7.388 11.5 22 7.3 101250 100
2008-11-27 14:36 51°21.252 3°7.458 10.3 22 7.3 101250 100
2008-11-27 14:37 51°21.272 3°7.527 10 25 7.3 101250 100
2008-11-27 14:38 51°21.292 3°7.596 10.1 23 7.4 101250 100
2008-11-27 14:39 51°21.31 3°7.662 10.6 28 7.4 101260 100
2008-11-27 14:40 51°21.328 3°7.731 9 26 7.4 101250 99
2008-11-27 14:41 51°21.344 3°7.797 11 24 7.4 101250 100
2008-11-27 14:42 51°21.353 3°7.852 10.7 16 7.4 101240 100
2008-11-27 14:43 51°21.366 3°7.892 11.9 17 7.4 101250 99
2008-11-27 14:44 51°21.38 3°7.927 12.2 17 7.4 101250 100
2008-11-27 14:45 51°21.396 3°7.956 11.3 16 7.4 101240 100
2008-11-27 14:46 51°21.412 3°7.98 12.1 12 7.4 101250 100
2008-11-27 14:47 51°21.43 3°8.001 13.4 12 7.4 101230 99
2008-11-27 14:48 51°21.45 3°8.021 9.6 15 7.3 101220 100
2008-11-27 14:49 51°21.459 3°8.056 11.2 359 7.4 101230 100
2008-11-27 14:50 51°21.425 3°8.085 12.6 324 7.4 101220 100
2008-11-27 14:51 51°21.412 3°8.021 13.1 252 7.4 101230 99
2008-11-27 14:52 51°21.432 3°8 6.7 262 7.4 101250 100
2008-11-27 14:53 51°21.453 3°8.002 7.2 264 7.4 101240 100
2008-11-27 14:54 51°21.475 3°8.002 12.8 251 7.4 101240 100
2008-11-27 14:55 51°21.469 3°7.949 13.1 326 7.4 101220 99
2008-11-27 14:56 51°21.437 3°7.959 11.5 352 7.4 101220 99
2008-11-27 14:57 51°21.448 3°7.981 11 12 7.4 101210 99
2008-11-27 14:58 51°21.464 3°8.003 10.5 20 7.4 101230 100
2008-11-27 14:59 51°21.48 3°8.023 10.2 22 7.4 101230 100
2008-11-27 15:00 51°21.489 3°8.061 12.6 359 7.4 101220 99
2008-11-27 15:01 51°21.432 3°8.059 15.1 38 7.5 101210 99
2008-11-27 15:02 51°21.364 3°7.893 15.5 315 7.5 101190 100
2008-11-27 15:03 51°21.266 3°7.656 14.2 316 7.5 101190 100
2008-11-27 15:04 51°21.164 3°7.412 15.8 316 7.6 101180 100
2008-11-27 15:05 51°21.056 3°7.16 17.1 316 7.6 101190 100
2008-11-27 15:06 51°20.946 3°6.922 16.6 317 7.6 101180 99
2008-11-27 15:07 51°20.835 3°6.681 13.5 318 7.6 101180 100
2008-11-27 15:08 51°20.73 3°6.424 16.6 315 7.6 101180 99
2008-11-27 15:09 51°20.629 3°6.175 17.6 316 7.6 101170 100
2008-11-27 15:10 51°20.523 3°5.918 17 33 7.6 101160 99
2008-11-27 15:11 51°20.413 3°5.678 14.2 317 7.6 101190 100
2008-11-27 15:12 51°20.3 3°5.425 16.4 36 7.6 101170 100
2008-11-27 15:13 51°20.192 3°5.184 17 316 7.6 101170 100
2008-11-27 15:14 51°20.08 3°4.932 17.1 316 7.6 101180 99
2008-11-27 15:15 51°19.977 3°4.675 16.5 34 7.6 101180 98
2008-11-27 15:16 51°19.872 3°4.415 15.1 316 7.6 101190 99
2008-11-27 15:17 51°19.763 3°4.151 15.9 35 7.6 101170 100
2008-11-27 15:18 51°19.656 3°3.897 16 316 7.6 101170 98
2008-11-27 15:19 51°19.545 3°3.634 14.2 316 7.6 101150 99
2008-11-27 15:20 51°19.433 3°3.386 14.9 316 7.6 101180 100
2008-11-27 15:21 51°19.317 3°3.136 14.6 316 7.6 101160 100
2008-11-27 15:22 51°19.206 3°2.889 19.4 316 7.6 101160 100
2008-11-27 15:23 51°19.097 3°2.626 17.9 34 7.6 101140 98
2008-11-27 15:24 51°18.992 3°2.371 15.4 34 7.6 101170 100
2008-11-27 15:25 51°18.877 3°2.12 18.4 34 7.6 101150 99
2008-11-27 15:26 51°18.76 3°1.871 13.7 316 7.6 101170 100
2008-11-27 15:27 51°18.643 3°1.622 16.1 36 7.6 101160 99
2008-11-27 15:28 51°18.525 3°1.369 16.6 315 7.6 101160 100
2008-11-27 15:29 51°18.409 3°1.126 13.9 317 7.7 101170 99
2008-11-27 15:30 51°18.286 3°0.883 15.8 318 7.7 101160 99
2008-11-27 15:31 51°18.163 3°0.656 16.8 318 7.7 101180 99
2008-11-27 15:32 51°18.04 3°0.42 18.1 315 7.7 101160 98
2008-11-27 15:33 51°17.927 3°0.184 15.6 33 7.7 101180 99
2008-11-27 15:34 51°17.81 2°59.945 17.5 316 7.7 101170 100
2008-11-27 15:35 51°17.699 2°59.698 17 316 7.7 101180 99
2008-11-27 15:36 51°17.592 2°59.444 13.9 37 7.7 101150 99
2008-11-27 15:37 51°17.485 2°59.179 16.8 37 7.7 101170 100
2008-11-27 15:38 51°17.38 2°58.922 15.7 317 7.7 101170 99
2008-11-27 15:39 51°17.268 2°58.658 16.3 317 7.7 101170 99
2008-11-27 15:40 51°17.156 2°58.406 17.1 37 7.7 101170 99
2008-11-27 15:41 51°17.042 2°58.143 18.5 315 7.7 101150 98
2008-11-27 15:42 51°16.93 2°57.89 13.2 315 7.7 101160 99
2008-11-27 15:43 51°16.81 2°57.64 16.7 316 7.6 101140 98
2008-11-27 15:44 51°16.696 2°57.382 15.5 315 7.6 101160 98
2008-11-27 15:45 51°16.583 2°57.119 15.5 316 7.6 101160 100
2008-11-27 15:46 51°16.472 2°56.859 16.2 37 7.6 101150 100
2008-11-27 15:47 51°16.363 2°56.603 12.9 316 7.6 101150 98
2008-11-27 15:48 51°16.25 2°56.345 15.4 316 7.6 101160 100
2008-11-27 15:49 51°16.137 2°56.103 14.6 34 7.6 101160 100
2008-11-27 15:50 51°16.017 2°55.851 11.7 35 7.7 101150 99
2008-11-27 15:51 51°15.903 2°55.607 13.2 315 7.7 101170 99
2008-11-27 15:52 51°15.787 2°55.356 15.6 317 7.7 101160 98
2008-11-27 15:53 51°15.663 2°55.132 14 321 7.7 101150 99
2008-11-27 15:54 51°15.513 2°54.95 14.7 324 7.8 101150 99
2008-11-27 15:55 51°15.344 2°54.823 16.1 326 7.8 101160 100
2008-11-27 15:56 51°15.157 2°54.739 16.7 328 7.8 101170 99
2008-11-27 15:57 51°14.974 2°54.659 16.4 330 7.8 101160 99
2008-11-27 15:58 51°14.781 2°54.612 14.6 335 7.7 101160 98
2008-11-27 15:59 51°14.591 2°54.693 13.4 345 7.7 101160 98
2008-11-27 16:00 51°14.439 2°54.879 12.8 350 7.7 101150 99
2008-11-27 16:01 51°14.317 2°55.137 8.5 351 7.7 101170 98
2008-11-27 16:02 51°14.234 2°55.288 6.1 343 7.7 101200 99
2008-11-27 16:03 51°14.172 2°55.368 6.6 335 7.6 101180 99
2008-11-27 16:04 51°14.121 2°55.408 6.4 345 7.6 101190 99
2008-11-27 16:05 51°14.076 2°55.443 5.9 338 7.6 101190 97
2008-11-27 16:06 51°14.047 2°55.468 9.3 334 7.6 101180 99
2008-11-27 16:07 51°14.03 2°55.49 3.4 343 7.5 101180 99
2008-11-27 16:08 51°14.016 2°55.507 5.2 336 7.5 101180 100
2008-11-27 16:09 51°13.991 2°55.527 7.2 338 7.5 101180 99
2008-11-27 16:10 51°13.907 2°55.584 9 341 7.5 101170 99
2008-11-27 16:11 51°13.825 2°55.642 8.8 331 7.5 101180 98
2008-11-27 16:12 51°13.749 2°55.71 8.6 342 7.5 101180 98
2008-11-27 16:13 51°13.695 2°55.813 6.7 359 7.5 101180 99
2008-11-27 16:14 51°13.66 2°55.903 4.6 344 7.5 101190 99
2008-11-27 16:15 51°13.636 2°55.992 5.2 -999 7.5 101180 99
2008-11-27 16:16 51°13.625 2°56.041 5.8 4 7.5 101190 99